sensor_id;sensor_type;location;lat;lon;timestamp;P1;durP1;ratioP1;P2;durP2;ratioP2
52898;SDS011;38763;53.096;6.062;2023-08-07T00:00:27;5.82;;;1.85;;
52898;SDS011;38763;53.096;6.062;2023-08-07T00:02:53;5.18;;;1.83;;
52898;SDS011;38763;53.096;6.062;2023-08-07T00:05:18;4.95;;;1.83;;
52898;SDS011;38763;53.096;6.062;2023-08-07T00:07:44;6.15;;;2.00;;
52898;SDS011;38763;53.096;6.062;2023-08-07T00:10:10;4.60;;;1.75;;
52898;SDS011;38763;53.096;6.062;2023-08-07T00:12:35;4.50;;;1.77;;
52898;SDS011;38763;53.096;6.062;2023-08-07T00:15:04;5.45;;;2.20;;
52898;SDS011;38763;53.096;6.062;2023-08-07T00:17:30;5.40;;;2.33;;
52898;SDS011;38763;53.096;6.062;2023-08-07T00:19:56;4.07;;;1.50;;
52898;SDS011;38763;53.096;6.062;2023-08-07T00:22:22;6.22;;;2.20;;
52898;SDS011;38763;53.096;6.062;2023-08-07T00:24:48;6.03;;;2.08;;
52898;SDS011;38763;53.096;6.062;2023-08-07T00:27:14;5.03;;;1.80;;
52898;SDS011;38763;53.096;6.062;2023-08-07T00:29:40;9.73;;;2.05;;
52898;SDS011;38763;53.096;6.062;2023-08-07T00:32:05;10.63;;;2.63;;
52898;SDS011;38763;53.096;6.062;2023-08-07T00:34:32;9.95;;;2.65;;
52898;SDS011;38763;53.096;6.062;2023-08-07T00:36:57;12.48;;;2.92;;
52898;SDS011;38763;53.096;6.062;2023-08-07T00:39:23;11.80;;;2.17;;
52898;SDS011;38763;53.096;6.062;2023-08-07T00:41:49;11.02;;;2.78;;
52898;SDS011;38763;53.096;6.062;2023-08-07T00:44:15;12.43;;;3.17;;
52898;SDS011;38763;53.096;6.062;2023-08-07T00:46:40;11.52;;;2.40;;
52898;SDS011;38763;53.096;6.062;2023-08-07T00:49:07;15.50;;;3.33;;
52898;SDS011;38763;53.096;6.062;2023-08-07T00:51:35;12.15;;;2.47;;
52898;SDS011;38763;53.096;6.062;2023-08-07T00:54:02;11.10;;;2.53;;
52898;SDS011;38763;53.096;6.062;2023-08-07T00:56:30;15.15;;;2.85;;
52898;SDS011;38763;53.096;6.062;2023-08-07T00:58:57;14.35;;;2.40;;
52898;SDS011;38763;53.096;6.062;2023-08-07T01:01:23;13.98;;;2.55;;
52898;SDS011;38763;53.096;6.062;2023-08-07T01:03:49;15.15;;;2.47;;
52898;SDS011;38763;53.096;6.062;2023-08-07T01:06:15;16.52;;;3.13;;
52898;SDS011;38763;53.096;6.062;2023-08-07T01:08:41;17.65;;;2.75;;
52898;SDS011;38763;53.096;6.062;2023-08-07T01:17:07;15.00;;;2.90;;
52898;SDS011;38763;53.096;6.062;2023-08-07T01:19:40;10.30;;;2.70;;
52898;SDS011;38763;53.096;6.062;2023-08-07T01:24:36;15.98;;;2.85;;
52898;SDS011;38763;53.096;6.062;2023-08-07T01:29:44;11.80;;;2.40;;
52898;SDS011;38763;53.096;6.062;2023-08-07T01:32:47;15.55;;;2.55;;
52898;SDS011;38763;53.096;6.062;2023-08-07T01:35:22;13.77;;;3.25;;
52898;SDS011;38763;53.096;6.062;2023-08-07T01:37:52;13.70;;;2.25;;
52898;SDS011;38763;53.096;6.062;2023-08-07T01:40:20;13.85;;;2.47;;
52898;SDS011;38763;53.096;6.062;2023-08-07T01:42:47;15.48;;;2.72;;
52898;SDS011;38763;53.096;6.062;2023-08-07T01:45:13;14.07;;;2.70;;
52898;SDS011;38763;53.096;6.062;2023-08-07T01:47:46;16.95;;;3.35;;
52898;SDS011;38763;53.096;6.062;2023-08-07T01:50:12;13.07;;;2.95;;
52898;SDS011;38763;53.096;6.062;2023-08-07T01:52:37;15.75;;;2.45;;
52898;SDS011;38763;53.096;6.062;2023-08-07T01:55:03;14.63;;;3.28;;
52898;SDS011;38763;53.096;6.062;2023-08-07T01:57:29;11.77;;;2.50;;
52898;SDS011;38763;53.096;6.062;2023-08-07T01:59:56;11.85;;;2.67;;
52898;SDS011;38763;53.096;6.062;2023-08-07T02:02:21;10.98;;;2.40;;
52898;SDS011;38763;53.096;6.062;2023-08-07T02:04:47;13.52;;;2.67;;
52898;SDS011;38763;53.096;6.062;2023-08-07T02:07:13;11.35;;;3.10;;
52898;SDS011;38763;53.096;6.062;2023-08-07T02:09:38;11.60;;;2.53;;
52898;SDS011;38763;53.096;6.062;2023-08-07T02:12:04;11.43;;;2.80;;
52898;SDS011;38763;53.096;6.062;2023-08-07T02:14:30;15.65;;;2.90;;
52898;SDS011;38763;53.096;6.062;2023-08-07T02:16:56;18.65;;;2.58;;
52898;SDS011;38763;53.096;6.062;2023-08-07T02:19:22;10.80;;;2.90;;
52898;SDS011;38763;53.096;6.062;2023-08-07T02:21:47;13.40;;;2.35;;
52898;SDS011;38763;53.096;6.062;2023-08-07T02:24:13;15.20;;;2.63;;
52898;SDS011;38763;53.096;6.062;2023-08-07T02:26:39;11.07;;;2.30;;
52898;SDS011;38763;53.096;6.062;2023-08-07T02:29:05;16.75;;;2.40;;
52898;SDS011;38763;53.096;6.062;2023-08-07T02:31:32;14.10;;;2.90;;
52898;SDS011;38763;53.096;6.062;2023-08-07T02:33:57;16.23;;;2.40;;
52898;SDS011;38763;53.096;6.062;2023-08-07T02:36:23;11.05;;;2.08;;
52898;SDS011;38763;53.096;6.062;2023-08-07T02:38:49;10.98;;;2.53;;
52898;SDS011;38763;53.096;6.062;2023-08-07T02:41:14;12.38;;;2.10;;
52898;SDS011;38763;53.096;6.062;2023-08-07T02:43:40;12.07;;;2.35;;
52898;SDS011;38763;53.096;6.062;2023-08-07T02:46:06;13.70;;;3.05;;
52898;SDS011;38763;53.096;6.062;2023-08-07T02:48:31;11.93;;;2.20;;
52898;SDS011;38763;53.096;6.062;2023-08-07T02:50:57;13.38;;;2.40;;
52898;SDS011;38763;53.096;6.062;2023-08-07T02:53:22;14.82;;;2.72;;
52898;SDS011;38763;53.096;6.062;2023-08-07T02:55:48;14.07;;;2.60;;
52898;SDS011;38763;53.096;6.062;2023-08-07T02:58:13;12.05;;;3.13;;
52898;SDS011;38763;53.096;6.062;2023-08-07T03:00:39;15.13;;;2.80;;
52898;SDS011;38763;53.096;6.062;2023-08-07T03:03:05;12.80;;;2.70;;
52898;SDS011;38763;53.096;6.062;2023-08-07T03:05:30;15.70;;;3.40;;
52898;SDS011;38763;53.096;6.062;2023-08-07T03:07:56;10.35;;;3.15;;
52898;SDS011;38763;53.096;6.062;2023-08-07T03:10:22;14.38;;;3.08;;
52898;SDS011;38763;53.096;6.062;2023-08-07T03:12:47;13.13;;;2.75;;
52898;SDS011;38763;53.096;6.062;2023-08-07T03:15:13;13.40;;;3.42;;
52898;SDS011;38763;53.096;6.062;2023-08-07T03:17:39;22.10;;;3.60;;
52898;SDS011;38763;53.096;6.062;2023-08-07T03:20:04;18.38;;;3.05;;
52898;SDS011;38763;53.096;6.062;2023-08-07T03:22:31;9.70;;;2.53;;
52898;SDS011;38763;53.096;6.062;2023-08-07T03:24:57;12.00;;;2.90;;
52898;SDS011;38763;53.096;6.062;2023-08-07T03:27:22;12.82;;;3.47;;
52898;SDS011;38763;53.096;6.062;2023-08-07T03:29:48;14.45;;;3.58;;
52898;SDS011;38763;53.096;6.062;2023-08-07T03:32:13;11.63;;;4.00;;
52898;SDS011;38763;53.096;6.062;2023-08-07T03:34:39;16.75;;;3.80;;
52898;SDS011;38763;53.096;6.062;2023-08-07T03:37:05;15.98;;;3.97;;
52898;SDS011;38763;53.096;6.062;2023-08-07T03:39:30;18.52;;;4.45;;
52898;SDS011;38763;53.096;6.062;2023-08-07T03:41:56;24.25;;;4.35;;
52898;SDS011;38763;53.096;6.062;2023-08-07T03:44:22;21.98;;;4.40;;
52898;SDS011;38763;53.096;6.062;2023-08-07T03:46:47;20.30;;;4.60;;
52898;SDS011;38763;53.096;6.062;2023-08-07T03:49:13;16.83;;;4.82;;
52898;SDS011;38763;53.096;6.062;2023-08-07T03:51:39;24.45;;;4.88;;
52898;SDS011;38763;53.096;6.062;2023-08-07T03:54:05;17.80;;;4.45;;
52898;SDS011;38763;53.096;6.062;2023-08-07T03:56:31;24.50;;;4.40;;
52898;SDS011;38763;53.096;6.062;2023-08-07T03:59:02;27.27;;;4.05;;
52898;SDS011;38763;53.096;6.062;2023-08-07T04:01:27;27.17;;;5.22;;
52898;SDS011;38763;53.096;6.062;2023-08-07T04:03:53;15.18;;;4.20;;
52898;SDS011;38763;53.096;6.062;2023-08-07T04:06:19;23.15;;;4.60;;
52898;SDS011;38763;53.096;6.062;2023-08-07T04:08:46;26.38;;;4.65;;
52898;SDS011;38763;53.096;6.062;2023-08-07T04:11:12;21.75;;;5.03;;
52898;SDS011;38763;53.096;6.062;2023-08-07T04:13:38;16.67;;;4.25;;
52898;SDS011;38763;53.096;6.062;2023-08-07T04:16:04;15.25;;;3.70;;
52898;SDS011;38763;53.096;6.062;2023-08-07T04:18:30;14.75;;;4.22;;
52898;SDS011;38763;53.096;6.062;2023-08-07T04:20:57;11.77;;;3.65;;
52898;SDS011;38763;53.096;6.062;2023-08-07T04:23:23;12.98;;;3.55;;
52898;SDS011;38763;53.096;6.062;2023-08-07T04:25:49;15.48;;;4.15;;
52898;SDS011;38763;53.096;6.062;2023-08-07T04:28:16;13.82;;;4.07;;
52898;SDS011;38763;53.096;6.062;2023-08-07T04:30:42;21.45;;;4.28;;
52898;SDS011;38763;53.096;6.062;2023-08-07T04:33:08;16.50;;;3.58;;
52898;SDS011;38763;53.096;6.062;2023-08-07T04:35:34;20.35;;;4.13;;
52898;SDS011;38763;53.096;6.062;2023-08-07T04:38:00;9.73;;;3.53;;
52898;SDS011;38763;53.096;6.062;2023-08-07T04:40:27;18.58;;;3.70;;
52898;SDS011;38763;53.096;6.062;2023-08-07T04:42:53;16.55;;;4.00;;
52898;SDS011;38763;53.096;6.062;2023-08-07T04:45:19;13.88;;;3.33;;
52898;SDS011;38763;53.096;6.062;2023-08-07T04:47:44;12.23;;;3.90;;
52898;SDS011;38763;53.096;6.062;2023-08-07T04:50:11;19.73;;;4.72;;
52898;SDS011;38763;53.096;6.062;2023-08-07T04:52:36;22.15;;;4.43;;
52898;SDS011;38763;53.096;6.062;2023-08-07T04:55:02;26.10;;;4.60;;
52898;SDS011;38763;53.096;6.062;2023-08-07T04:57:29;23.30;;;4.75;;
52898;SDS011;38763;53.096;6.062;2023-08-07T04:59:54;21.02;;;4.72;;
52898;SDS011;38763;53.096;6.062;2023-08-07T05:02:20;18.75;;;4.22;;
52898;SDS011;38763;53.096;6.062;2023-08-07T05:04:46;17.92;;;5.07;;
52898;SDS011;38763;53.096;6.062;2023-08-07T05:07:11;15.68;;;4.22;;
52898;SDS011;38763;53.096;6.062;2023-08-07T05:09:37;18.25;;;4.22;;
52898;SDS011;38763;53.096;6.062;2023-08-07T05:12:03;21.83;;;4.78;;
52898;SDS011;38763;53.096;6.062;2023-08-07T05:14:30;18.13;;;3.80;;
52898;SDS011;38763;53.096;6.062;2023-08-07T05:16:56;18.83;;;4.28;;
52898;SDS011;38763;53.096;6.062;2023-08-07T05:19:21;23.13;;;4.78;;
52898;SDS011;38763;53.096;6.062;2023-08-07T05:21:47;20.45;;;4.07;;
52898;SDS011;38763;53.096;6.062;2023-08-07T05:24:16;19.10;;;4.47;;
52898;SDS011;38763;53.096;6.062;2023-08-07T05:26:42;16.95;;;4.90;;
52898;SDS011;38763;53.096;6.062;2023-08-07T05:29:08;15.43;;;4.10;;
52898;SDS011;38763;53.096;6.062;2023-08-07T05:31:34;16.05;;;3.92;;
52898;SDS011;38763;53.096;6.062;2023-08-07T05:33:59;19.42;;;4.30;;
52898;SDS011;38763;53.096;6.062;2023-08-07T05:36:25;16.33;;;4.18;;
52898;SDS011;38763;53.096;6.062;2023-08-07T05:38:51;13.77;;;3.90;;
52898;SDS011;38763;53.096;6.062;2023-08-07T05:41:17;20.40;;;4.32;;
52898;SDS011;38763;53.096;6.062;2023-08-07T05:43:42;21.42;;;4.43;;
52898;SDS011;38763;53.096;6.062;2023-08-07T05:46:08;16.98;;;4.00;;
52898;SDS011;38763;53.096;6.062;2023-08-07T05:48:34;16.10;;;4.20;;
52898;SDS011;38763;53.096;6.062;2023-08-07T05:51:00;13.30;;;3.58;;
52898;SDS011;38763;53.096;6.062;2023-08-07T05:53:26;15.65;;;3.50;;
52898;SDS011;38763;53.096;6.062;2023-08-07T05:55:51;11.52;;;3.13;;
52898;SDS011;38763;53.096;6.062;2023-08-07T05:58:17;16.25;;;4.07;;
52898;SDS011;38763;53.096;6.062;2023-08-07T06:00:44;15.45;;;3.75;;
52898;SDS011;38763;53.096;6.062;2023-08-07T06:03:09;14.18;;;3.65;;
52898;SDS011;38763;53.096;6.062;2023-08-07T06:05:35;11.48;;;3.42;;
52898;SDS011;38763;53.096;6.062;2023-08-07T06:08:01;20.10;;;4.20;;
52898;SDS011;38763;53.096;6.062;2023-08-07T06:10:26;16.05;;;4.15;;
52898;SDS011;38763;53.096;6.062;2023-08-07T06:12:52;16.67;;;3.88;;
52898;SDS011;38763;53.096;6.062;2023-08-07T06:15:18;20.70;;;4.82;;
52898;SDS011;38763;53.096;6.062;2023-08-07T06:17:44;23.45;;;4.70;;
52898;SDS011;38763;53.096;6.062;2023-08-07T06:20:10;18.63;;;3.97;;
52898;SDS011;38763;53.096;6.062;2023-08-07T06:22:38;20.80;;;4.70;;
52898;SDS011;38763;53.096;6.062;2023-08-07T06:25:03;13.93;;;3.40;;
52898;SDS011;38763;53.096;6.062;2023-08-07T06:27:31;14.35;;;3.75;;
52898;SDS011;38763;53.096;6.062;2023-08-07T06:29:57;16.48;;;3.75;;
52898;SDS011;38763;53.096;6.062;2023-08-07T06:32:24;12.82;;;2.97;;
52898;SDS011;38763;53.096;6.062;2023-08-07T06:34:50;13.02;;;3.10;;
52898;SDS011;38763;53.096;6.062;2023-08-07T06:37:16;10.35;;;2.80;;
52898;SDS011;38763;53.096;6.062;2023-08-07T06:39:42;13.02;;;2.58;;
52898;SDS011;38763;53.096;6.062;2023-08-07T06:42:07;12.60;;;3.25;;
52898;SDS011;38763;53.096;6.062;2023-08-07T06:44:33;12.73;;;2.60;;
52898;SDS011;38763;53.096;6.062;2023-08-07T06:46:59;13.43;;;2.72;;
52898;SDS011;38763;53.096;6.062;2023-08-07T06:49:24;10.32;;;2.65;;
52898;SDS011;38763;53.096;6.062;2023-08-07T06:51:50;18.50;;;2.95;;
52898;SDS011;38763;53.096;6.062;2023-08-07T06:54:16;15.18;;;2.60;;
52898;SDS011;38763;53.096;6.062;2023-08-07T06:56:41;12.23;;;2.50;;
52898;SDS011;38763;53.096;6.062;2023-08-07T06:59:08;10.73;;;2.50;;
52898;SDS011;38763;53.096;6.062;2023-08-07T07:01:34;13.15;;;2.40;;
52898;SDS011;38763;53.096;6.062;2023-08-07T07:04:00;10.60;;;2.38;;
52898;SDS011;38763;53.096;6.062;2023-08-07T07:06:25;11.75;;;1.92;;
52898;SDS011;38763;53.096;6.062;2023-08-07T07:08:51;14.45;;;2.47;;
52898;SDS011;38763;53.096;6.062;2023-08-07T07:11:21;9.90;;;2.35;;
52898;SDS011;38763;53.096;6.062;2023-08-07T07:13:49;11.75;;;2.50;;
52898;SDS011;38763;53.096;6.062;2023-08-07T07:16:16;9.10;;;2.60;;
52898;SDS011;38763;53.096;6.062;2023-08-07T07:21:15;5.95;;;2.33;;
52898;SDS011;38763;53.096;6.062;2023-08-07T07:23:41;8.73;;;2.92;;
52898;SDS011;38763;53.096;6.062;2023-08-07T07:26:06;11.52;;;3.00;;
52898;SDS011;38763;53.096;6.062;2023-08-07T07:28:32;12.40;;;2.60;;
52898;SDS011;38763;53.096;6.062;2023-08-07T07:30:58;10.98;;;2.90;;
52898;SDS011;38763;53.096;6.062;2023-08-07T07:33:23;14.75;;;2.95;;
52898;SDS011;38763;53.096;6.062;2023-08-07T07:35:49;12.57;;;2.83;;
52898;SDS011;38763;53.096;6.062;2023-08-07T07:38:15;13.27;;;2.60;;
52898;SDS011;38763;53.096;6.062;2023-08-07T07:40:41;11.52;;;2.85;;
52898;SDS011;38763;53.096;6.062;2023-08-07T07:43:07;12.35;;;2.65;;
52898;SDS011;38763;53.096;6.062;2023-08-07T07:45:32;11.50;;;2.10;;
52898;SDS011;38763;53.096;6.062;2023-08-07T07:48:02;6.75;;;2.78;;
52898;SDS011;38763;53.096;6.062;2023-08-07T07:50:28;8.70;;;2.55;;
52898;SDS011;38763;53.096;6.062;2023-08-07T07:52:54;11.07;;;3.03;;
52898;SDS011;38763;53.096;6.062;2023-08-07T07:55:20;10.27;;;2.60;;
52898;SDS011;38763;53.096;6.062;2023-08-07T07:57:45;8.95;;;3.20;;
52898;SDS011;38763;53.096;6.062;2023-08-07T08:00:12;11.10;;;2.97;;
52898;SDS011;38763;53.096;6.062;2023-08-07T08:02:38;10.68;;;3.05;;
52898;SDS011;38763;53.096;6.062;2023-08-07T08:05:06;13.02;;;3.47;;
52898;SDS011;38763;53.096;6.062;2023-08-07T08:07:32;11.93;;;2.75;;
52898;SDS011;38763;53.096;6.062;2023-08-07T08:09:59;9.98;;;2.88;;
52898;SDS011;38763;53.096;6.062;2023-08-07T08:12:25;13.43;;;2.85;;
52898;SDS011;38763;53.096;6.062;2023-08-07T08:14:51;8.60;;;2.60;;
52898;SDS011;38763;53.096;6.062;2023-08-07T08:17:17;13.93;;;2.92;;
52898;SDS011;38763;53.096;6.062;2023-08-07T08:19:43;10.23;;;2.63;;
52898;SDS011;38763;53.096;6.062;2023-08-07T08:22:08;8.70;;;2.90;;
52898;SDS011;38763;53.096;6.062;2023-08-07T08:24:34;11.00;;;2.65;;
52898;SDS011;38763;53.096;6.062;2023-08-07T08:27:00;15.68;;;3.20;;
52898;SDS011;38763;53.096;6.062;2023-08-07T08:29:26;9.40;;;2.47;;
52898;SDS011;38763;53.096;6.062;2023-08-07T08:31:53;14.95;;;2.50;;
52898;SDS011;38763;53.096;6.062;2023-08-07T08:34:19;9.65;;;2.03;;
52898;SDS011;38763;53.096;6.062;2023-08-07T08:36:46;9.88;;;1.98;;
52898;SDS011;38763;53.096;6.062;2023-08-07T08:39:12;8.88;;;2.35;;
52898;SDS011;38763;53.096;6.062;2023-08-07T08:41:39;11.48;;;2.50;;
52898;SDS011;38763;53.096;6.062;2023-08-07T08:44:06;7.05;;;2.00;;
52898;SDS011;38763;53.096;6.062;2023-08-07T08:46:35;12.38;;;2.13;;
52898;SDS011;38763;53.096;6.062;2023-08-07T08:49:03;9.05;;;2.28;;
52898;SDS011;38763;53.096;6.062;2023-08-07T08:51:30;14.40;;;1.92;;
52898;SDS011;38763;53.096;6.062;2023-08-07T08:53:57;8.80;;;1.88;;
52898;SDS011;38763;53.096;6.062;2023-08-07T08:56:24;7.20;;;2.08;;
52898;SDS011;38763;53.096;6.062;2023-08-07T08:58:50;10.10;;;2.15;;
52898;SDS011;38763;53.096;6.062;2023-08-07T09:01:17;7.55;;;2.03;;
52898;SDS011;38763;53.096;6.062;2023-08-07T09:03:44;10.68;;;2.03;;
52898;SDS011;38763;53.096;6.062;2023-08-07T09:06:10;8.52;;;1.90;;
52898;SDS011;38763;53.096;6.062;2023-08-07T09:08:37;6.75;;;2.00;;
52898;SDS011;38763;53.096;6.062;2023-08-07T09:11:08;10.05;;;1.90;;
52898;SDS011;38763;53.096;6.062;2023-08-07T09:13:36;9.13;;;2.03;;
52898;SDS011;38763;53.096;6.062;2023-08-07T09:16:03;9.50;;;2.25;;
52898;SDS011;38763;53.096;6.062;2023-08-07T09:18:32;12.90;;;2.60;;
52898;SDS011;38763;53.096;6.062;2023-08-07T09:20:59;9.57;;;2.45;;
52898;SDS011;38763;53.096;6.062;2023-08-07T09:23:25;10.05;;;2.20;;
52898;SDS011;38763;53.096;6.062;2023-08-07T09:26:00;13.45;;;2.50;;
52898;SDS011;38763;53.096;6.062;2023-08-07T09:28:28;12.63;;;2.30;;
52898;SDS011;38763;53.096;6.062;2023-08-07T09:30:55;15.50;;;1.90;;
52898;SDS011;38763;53.096;6.062;2023-08-07T09:33:27;8.85;;;2.42;;
52898;SDS011;38763;53.096;6.062;2023-08-07T09:36:00;6.95;;;1.98;;
52898;SDS011;38763;53.096;6.062;2023-08-07T09:38:27;9.88;;;2.13;;
52898;SDS011;38763;53.096;6.062;2023-08-07T09:40:59;7.53;;;2.13;;
52898;SDS011;38763;53.096;6.062;2023-08-07T09:43:26;10.23;;;2.30;;
52898;SDS011;38763;53.096;6.062;2023-08-07T09:45:52;7.13;;;2.00;;
52898;SDS011;38763;53.096;6.062;2023-08-07T09:48:26;8.77;;;2.25;;
52898;SDS011;38763;53.096;6.062;2023-08-07T09:50:53;10.10;;;2.53;;
52898;SDS011;38763;53.096;6.062;2023-08-07T09:53:29;10.02;;;2.25;;
52898;SDS011;38763;53.096;6.062;2023-08-07T09:55:55;9.15;;;2.05;;
52898;SDS011;38763;53.096;6.062;2023-08-07T09:58:20;8.13;;;1.88;;
52898;SDS011;38763;53.096;6.062;2023-08-07T10:00:47;7.50;;;2.00;;
52898;SDS011;38763;53.096;6.062;2023-08-07T10:03:13;8.05;;;2.05;;
52898;SDS011;38763;53.096;6.062;2023-08-07T10:05:39;7.38;;;1.90;;
52898;SDS011;38763;53.096;6.062;2023-08-07T10:08:06;7.00;;;1.98;;
52898;SDS011;38763;53.096;6.062;2023-08-07T10:10:32;9.25;;;2.20;;
52898;SDS011;38763;53.096;6.062;2023-08-07T10:13:00;8.25;;;2.15;;
52898;SDS011;38763;53.096;6.062;2023-08-07T10:15:26;8.55;;;2.15;;
52898;SDS011;38763;53.096;6.062;2023-08-07T10:17:53;10.90;;;2.40;;
52898;SDS011;38763;53.096;6.062;2023-08-07T10:20:19;9.68;;;2.28;;
52898;SDS011;38763;53.096;6.062;2023-08-07T10:22:46;10.90;;;2.15;;
52898;SDS011;38763;53.096;6.062;2023-08-07T10:25:13;7.57;;;2.08;;
52898;SDS011;38763;53.096;6.062;2023-08-07T10:27:40;9.77;;;2.15;;
52898;SDS011;38763;53.096;6.062;2023-08-07T10:30:08;12.88;;;2.25;;
52898;SDS011;38763;53.096;6.062;2023-08-07T10:32:38;7.15;;;2.30;;
52898;SDS011;38763;53.096;6.062;2023-08-07T10:35:05;7.55;;;2.00;;
52898;SDS011;38763;53.096;6.062;2023-08-07T10:40:09;6.35;;;1.70;;
52898;SDS011;38763;53.096;6.062;2023-08-07T10:45:22;5.40;;;1.80;;
52898;SDS011;38763;53.096;6.062;2023-08-07T10:47:59;7.80;;;1.92;;
52898;SDS011;38763;53.096;6.062;2023-08-07T10:50:28;8.32;;;1.77;;
52898;SDS011;38763;53.096;6.062;2023-08-07T10:53:02;5.35;;;1.40;;
52898;SDS011;38763;53.096;6.062;2023-08-07T10:55:31;9.15;;;1.65;;
52898;SDS011;38763;53.096;6.062;2023-08-07T10:58:22;5.63;;;1.75;;
52898;SDS011;38763;53.096;6.062;2023-08-07T11:00:49;6.93;;;1.80;;
52898;SDS011;38763;53.096;6.062;2023-08-07T11:03:28;9.52;;;2.15;;
52898;SDS011;38763;53.096;6.062;2023-08-07T11:05:53;7.18;;;1.60;;
52898;SDS011;38763;53.096;6.062;2023-08-07T11:08:23;8.85;;;1.77;;
52898;SDS011;38763;53.096;6.062;2023-08-07T11:10:50;8.60;;;2.00;;
52898;SDS011;38763;53.096;6.062;2023-08-07T11:13:17;5.75;;;1.52;;
52898;SDS011;38763;53.096;6.062;2023-08-07T11:15:43;6.63;;;1.70;;
52898;SDS011;38763;53.096;6.062;2023-08-07T11:18:09;7.30;;;1.67;;
52898;SDS011;38763;53.096;6.062;2023-08-07T11:20:35;7.82;;;1.75;;
52898;SDS011;38763;53.096;6.062;2023-08-07T11:23:04;6.97;;;1.90;;
52898;SDS011;38763;53.096;6.062;2023-08-07T11:25:30;5.70;;;1.80;;
52898;SDS011;38763;53.096;6.062;2023-08-07T11:27:56;9.23;;;1.92;;
52898;SDS011;38763;53.096;6.062;2023-08-07T11:30:21;8.32;;;2.08;;
52898;SDS011;38763;53.096;6.062;2023-08-07T11:32:47;11.05;;;1.77;;
52898;SDS011;38763;53.096;6.062;2023-08-07T11:35:14;7.10;;;2.05;;
52898;SDS011;38763;53.096;6.062;2023-08-07T11:37:46;10.43;;;2.20;;
52898;SDS011;38763;53.096;6.062;2023-08-07T11:42:38;7.40;;;2.00;;
52898;SDS011;38763;53.096;6.062;2023-08-07T11:45:05;12.00;;;2.13;;
52898;SDS011;38763;53.096;6.062;2023-08-07T11:47:31;9.52;;;2.28;;
52898;SDS011;38763;53.096;6.062;2023-08-07T11:49:57;10.45;;;2.13;;
52898;SDS011;38763;53.096;6.062;2023-08-07T11:52:24;7.00;;;2.05;;
52898;SDS011;38763;53.096;6.062;2023-08-07T11:54:49;9.63;;;2.38;;
52898;SDS011;38763;53.096;6.062;2023-08-07T11:57:18;6.75;;;2.30;;
52898;SDS011;38763;53.096;6.062;2023-08-07T11:59:51;7.07;;;2.00;;
52898;SDS011;38763;53.096;6.062;2023-08-07T12:02:21;10.20;;;2.47;;
52898;SDS011;38763;53.096;6.062;2023-08-07T12:04:49;8.90;;;2.20;;
52898;SDS011;38763;53.096;6.062;2023-08-07T12:07:16;7.65;;;2.00;;
52898;SDS011;38763;53.096;6.062;2023-08-07T12:09:44;7.35;;;1.98;;
52898;SDS011;38763;53.096;6.062;2023-08-07T12:12:10;6.35;;;1.90;;
52898;SDS011;38763;53.096;6.062;2023-08-07T12:14:36;11.40;;;2.30;;
52898;SDS011;38763;53.096;6.062;2023-08-07T12:17:03;7.15;;;2.33;;
52898;SDS011;38763;53.096;6.062;2023-08-07T12:19:36;6.72;;;1.67;;
52898;SDS011;38763;53.096;6.062;2023-08-07T12:22:05;6.13;;;2.00;;
52898;SDS011;38763;53.096;6.062;2023-08-07T12:24:32;10.63;;;2.35;;
52898;SDS011;38763;53.096;6.062;2023-08-07T12:26:58;9.25;;;1.80;;
52898;SDS011;38763;53.096;6.062;2023-08-07T12:29:23;7.85;;;2.20;;
52898;SDS011;38763;53.096;6.062;2023-08-07T12:31:53;6.18;;;2.00;;
52898;SDS011;38763;53.096;6.062;2023-08-07T12:34:19;7.47;;;2.13;;
52898;SDS011;38763;53.096;6.062;2023-08-07T12:36:45;8.98;;;2.22;;
52898;SDS011;38763;53.096;6.062;2023-08-07T12:39:12;7.75;;;2.13;;
52898;SDS011;38763;53.096;6.062;2023-08-07T12:41:37;5.97;;;1.70;;
52898;SDS011;38763;53.096;6.062;2023-08-07T12:44:03;8.32;;;2.03;;
52898;SDS011;38763;53.096;6.062;2023-08-07T12:46:29;7.10;;;2.03;;
52898;SDS011;38763;53.096;6.062;2023-08-07T12:48:55;7.68;;;2.00;;
52898;SDS011;38763;53.096;6.062;2023-08-07T12:51:20;7.90;;;2.40;;
52898;SDS011;38763;53.096;6.062;2023-08-07T12:53:46;6.38;;;2.13;;
52898;SDS011;38763;53.096;6.062;2023-08-07T12:56:12;5.40;;;1.90;;
52898;SDS011;38763;53.096;6.062;2023-08-07T12:58:38;6.10;;;1.92;;
52898;SDS011;38763;53.096;6.062;2023-08-07T13:01:04;7.70;;;1.88;;
52898;SDS011;38763;53.096;6.062;2023-08-07T13:03:29;8.75;;;2.42;;
52898;SDS011;38763;53.096;6.062;2023-08-07T13:05:55;7.80;;;1.90;;
52898;SDS011;38763;53.096;6.062;2023-08-07T13:08:21;5.82;;;1.73;;
52898;SDS011;38763;53.096;6.062;2023-08-07T13:10:46;7.03;;;2.10;;
52898;SDS011;38763;53.096;6.062;2023-08-07T13:13:12;11.50;;;2.08;;
52898;SDS011;38763;53.096;6.062;2023-08-07T13:15:37;7.65;;;2.13;;
52898;SDS011;38763;53.096;6.062;2023-08-07T13:18:03;7.70;;;2.10;;
52898;SDS011;38763;53.096;6.062;2023-08-07T13:20:29;8.25;;;2.15;;
52898;SDS011;38763;53.096;6.062;2023-08-07T13:22:58;6.82;;;2.20;;
52898;SDS011;38763;53.096;6.062;2023-08-07T13:25:24;7.78;;;2.30;;
52898;SDS011;38763;53.096;6.062;2023-08-07T13:27:50;8.20;;;2.50;;
52898;SDS011;38763;53.096;6.062;2023-08-07T13:30:16;6.32;;;2.00;;
52898;SDS011;38763;53.096;6.062;2023-08-07T13:32:41;9.15;;;2.67;;
52898;SDS011;38763;53.096;6.062;2023-08-07T13:35:07;6.82;;;1.90;;
52898;SDS011;38763;53.096;6.062;2023-08-07T13:37:34;8.25;;;2.33;;
52898;SDS011;38763;53.096;6.062;2023-08-07T13:39:59;8.32;;;2.40;;
52898;SDS011;38763;53.096;6.062;2023-08-07T13:42:25;8.95;;;2.17;;
52898;SDS011;38763;53.096;6.062;2023-08-07T13:44:52;9.50;;;1.92;;
52898;SDS011;38763;53.096;6.062;2023-08-07T13:47:18;10.85;;;2.47;;
52898;SDS011;38763;53.096;6.062;2023-08-07T13:49:45;6.85;;;2.17;;
52898;SDS011;38763;53.096;6.062;2023-08-07T13:52:11;6.28;;;1.80;;
52898;SDS011;38763;53.096;6.062;2023-08-07T13:54:37;12.35;;;2.30;;
52898;SDS011;38763;53.096;6.062;2023-08-07T13:57:03;7.97;;;1.98;;
52898;SDS011;38763;53.096;6.062;2023-08-07T13:59:29;9.55;;;2.20;;
52898;SDS011;38763;53.096;6.062;2023-08-07T14:01:54;5.47;;;1.80;;
52898;SDS011;38763;53.096;6.062;2023-08-07T14:04:21;4.95;;;1.80;;
52898;SDS011;38763;53.096;6.062;2023-08-07T14:06:47;6.47;;;1.83;;
52898;SDS011;38763;53.096;6.062;2023-08-07T14:09:12;5.45;;;1.70;;
52898;SDS011;38763;53.096;6.062;2023-08-07T14:11:39;6.18;;;1.67;;
52898;SDS011;38763;53.096;6.062;2023-08-07T14:14:04;9.85;;;2.47;;
52898;SDS011;38763;53.096;6.062;2023-08-07T14:16:30;5.25;;;1.63;;
52898;SDS011;38763;53.096;6.062;2023-08-07T14:18:56;6.47;;;1.77;;
52898;SDS011;38763;53.096;6.062;2023-08-07T14:21:22;10.07;;;1.98;;
52898;SDS011;38763;53.096;6.062;2023-08-07T14:23:48;5.85;;;1.65;;
52898;SDS011;38763;53.096;6.062;2023-08-07T14:26:14;7.50;;;1.70;;
52898;SDS011;38763;53.096;6.062;2023-08-07T14:28:40;6.88;;;1.58;;
52898;SDS011;38763;53.096;6.062;2023-08-07T14:31:07;6.47;;;1.80;;
52898;SDS011;38763;53.096;6.062;2023-08-07T14:33:34;6.65;;;1.58;;
52898;SDS011;38763;53.096;6.062;2023-08-07T14:36:00;6.55;;;1.50;;
52898;SDS011;38763;53.096;6.062;2023-08-07T14:38:26;8.70;;;1.88;;
52898;SDS011;38763;53.096;6.062;2023-08-07T14:40:52;6.20;;;1.40;;
52898;SDS011;38763;53.096;6.062;2023-08-07T14:43:18;3.72;;;1.30;;
52898;SDS011;38763;53.096;6.062;2023-08-07T14:45:44;4.45;;;1.50;;
52898;SDS011;38763;53.096;6.062;2023-08-07T14:48:10;7.88;;;1.50;;
52898;SDS011;38763;53.096;6.062;2023-08-07T14:50:35;5.85;;;1.50;;
52898;SDS011;38763;53.096;6.062;2023-08-07T14:53:01;3.85;;;1.35;;
52898;SDS011;38763;53.096;6.062;2023-08-07T14:55:27;3.97;;;1.45;;
52898;SDS011;38763;53.096;6.062;2023-08-07T14:57:52;6.95;;;1.40;;